Time;durP1;ratioP1;P1;durP2;ratioP2;P2;SDS_P1;SDS_P2;PMS_P1;PMS_P2;Temp;Humidity;BMP_temperature;BMP_pressure;BME280_temperature;BME280_humidity;BME280_pressure;Samples;Min_cycle;Max_cycle;Signal;HPM_P1;HPM_P2
2023/12/15 00:01:09;;;;;;;44.83;16.75;;;;;;;1.29;100.00;101906.31;5062724;28;20040;-75
2023/12/15 00:03:34;;;;;;;44.15;17.27;;;;;;;1.32;100.00;101911.44;5051996;28;20443;-75
2023/12/15 00:06:00;;;;;;;40.80;18.80;;;;;;;1.37;100.00;101918.16;5050918;28;20128;-75
2023/12/15 00:08:25;;;;;;;38.15;16.95;;;;;;;1.26;100.00;101923.97;5049721;28;20033;-75
2023/12/15 00:10:51;;;;;;;37.78;15.80;;;;;;;1.39;100.00;101933.91;5042101;28;20033;-74
2023/12/15 00:13:16;;;;;;;42.08;17.52;;;;;;;1.46;100.00;101944.03;5062974;28;20027;-75
2023/12/15 00:15:42;;;;;;;43.17;19.08;;;;;;;1.42;100.00;101936.38;5069912;28;20519;-74
2023/12/15 00:18:07;;;;;;;44.13;18.55;;;;;;;1.47;100.00;101939.63;5050474;28;20037;-74
2023/12/15 00:20:33;;;;;;;44.72;16.40;;;;;;;1.45;100.00;101941.47;5064692;28;20132;-74
2023/12/15 00:22:58;;;;;;;45.28;18.00;;;;;;;1.49;100.00;101945.66;5048550;28;20032;-75
2023/12/15 00:25:23;;;;;;;41.38;17.73;;;;;;;1.43;100.00;101941.56;5055027;28;20020;-74
2023/12/15 00:27:49;;;;;;;37.33;16.60;;;;;;;1.45;100.00;101937.09;5062188;28;20041;-74
2023/12/15 00:30:14;;;;;;;34.58;15.02;;;;;;;1.59;100.00;101959.22;5067389;28;20036;-75
2023/12/15 00:32:40;;;;;;;42.08;17.02;;;;;;;1.54;100.00;101956.81;5046540;28;20041;-74
2023/12/15 00:35:06;;;;;;;41.70;16.92;;;;;;;1.56;100.00;101954.97;5049593;28;20037;-74
2023/12/15 00:37:31;;;;;;;45.58;16.73;;;;;;;1.55;100.00;101961.19;5051683;28;20082;-74
2023/12/15 00:39:57;;;;;;;42.33;17.45;;;;;;;1.57;100.00;101961.97;5067638;28;20032;-75
2023/12/15 00:42:22;;;;;;;38.58;15.77;;;;;;;1.58;100.00;101952.28;5065249;28;20043;-75
2023/12/15 00:44:47;;;;;;;45.63;17.88;;;;;;;1.43;100.00;101946.00;5046735;28;20054;-75
2023/12/15 00:47:14;;;;;;;36.85;16.40;;;;;;;1.60;100.00;101960.97;5053333;28;20044;-74
2023/12/15 00:49:40;;;;;;;37.15;15.85;;;;;;;1.57;100.00;101961.97;5052228;28;20068;-75
2023/12/15 00:52:05;;;;;;;43.83;16.50;;;;;;;1.65;100.00;101967.69;5065620;28;20039;-75
2023/12/15 00:54:31;;;;;;;41.13;15.70;;;;;;;1.63;100.00;101958.16;5067916;28;20036;-75
2023/12/15 00:56:56;;;;;;;39.40;16.02;;;;;;;1.66;100.00;101966.78;5050912;28;20020;-73
2023/12/15 00:59:21;;;;;;;42.50;16.33;;;;;;;1.67;100.00;101971.09;5044329;28;20024;-75
2023/12/15 01:01:47;;;;;;;44.75;17.23;;;;;;;1.81;100.00;101977.47;5063241;28;20040;-75
2023/12/15 01:04:12;;;;;;;38.45;16.83;;;;;;;1.87;100.00;101974.53;5059768;28;20385;-74
2023/12/15 01:06:38;;;;;;;47.67;18.42;;;;;;;1.70;100.00;101962.19;5068733;28;20068;-75
2023/12/15 01:09:03;;;;;;;44.17;17.92;;;;;;;1.80;100.00;101970.50;5053837;28;20029;-75
2023/12/15 01:11:28;;;;;;;40.95;17.98;;;;;;;1.73;100.00;101966.47;5068759;28;20578;-76
2023/12/15 01:13:54;;;;;;;37.80;16.73;;;;;;;1.78;100.00;101982.88;5060531;28;20045;-75
2023/12/15 01:16:20;;;;;;;35.22;16.83;;;;;;;1.87;100.00;101985.06;5067180;28;20506;-74
2023/12/15 01:18:45;;;;;;;46.17;18.65;;;;;;;1.85;100.00;101979.88;5058831;28;20036;-75
2023/12/15 01:21:10;;;;;;;45.15;18.35;;;;;;;1.73;100.00;101972.56;5050168;28;20078;-74
2023/12/15 01:23:36;;;;;;;53.33;18.63;;;;;;;1.86;100.00;101986.84;5066575;28;20027;-75
2023/12/15 01:26:02;;;;;;;45.88;17.60;;;;;;;1.86;100.00;101983.38;5048756;28;20063;-74
2023/12/15 01:28:27;;;;;;;48.28;19.15;;;;;;;1.98;100.00;101992.44;5057246;28;20033;-75
2023/12/15 01:30:53;;;;;;;42.53;18.58;;;;;;;1.74;100.00;101979.56;5056834;28;20118;-74
2023/12/15 01:33:18;;;;;;;49.15;20.52;;;;;;;1.93;100.00;101995.31;5052850;28;20024;-75
2023/12/15 01:35:44;;;;;;;41.45;18.85;;;;;;;1.93;100.00;101989.19;5054677;28;20021;-75
2023/12/15 01:38:09;;;;;;;42.72;18.70;;;;;;;1.86;100.00;101989.47;5050984;28;20095;-75
2023/12/15 01:40:35;;;;;;;51.42;19.90;;;;;;;1.99;100.00;101999.41;5055097;28;20032;-75
2023/12/15 01:43:01;;;;;;;52.22;18.85;;;;;;;1.93;100.00;101987.41;5066669;28;20036;-75
2023/12/15 01:45:26;;;;;;;51.28;19.15;;;;;;;1.84;100.00;101983.44;5066626;28;20082;-75
2023/12/15 01:47:52;;;;;;;40.20;16.92;;;;;;;2.00;100.00;101998.50;5066548;28;20031;-74
2023/12/15 01:50:18;;;;;;;49.28;19.45;;;;;;;1.89;100.00;101996.38;5064217;28;20039;-75
2023/12/15 01:52:43;;;;;;;48.80;18.73;;;;;;;1.97;100.00;102010.03;5049245;28;20036;-74
2023/12/15 01:55:09;;;;;;;53.65;21.08;;;;;;;2.03;100.00;102009.72;5058268;28;20846;-74
2023/12/15 01:57:34;;;;;;;45.17;18.88;;;;;;;2.09;100.00;102012.06;5066659;28;20036;-74
2023/12/15 02:00:00;;;;;;;45.88;18.15;;;;;;;2.11;100.00;102002.28;5047090;28;20047;-74
2023/12/15 02:02:25;;;;;;;56.15;20.98;;;;;;;2.15;100.00;102000.34;5060974;28;20028;-74
2023/12/15 02:04:50;;;;;;;49.20;18.83;;;;;;;2.19;100.00;101996.63;5058965;28;20033;-74
2023/12/15 02:07:17;;;;;;;55.10;20.15;;;;;;;2.16;100.00;102004.69;5065697;28;20167;-74
2023/12/15 02:09:42;;;;;;;60.13;21.02;;;;;;;2.23;100.00;102018.41;5066034;28;20024;-74
2023/12/15 02:12:08;;;;;;;43.67;17.85;;;;;;;2.23;100.00;102007.88;5049093;28;20028;-74
2023/12/15 02:14:33;;;;;;;43.00;18.67;;;;;;;2.27;100.00;102012.91;5065901;28;20029;-75
2023/12/15 02:16:59;;;;;;;55.95;21.20;;;;;;;2.37;100.00;102023.00;5058899;28;20939;-74
2023/12/15 02:19:24;;;;;;;50.75;18.63;;;;;;;2.37;100.00;102010.66;5066941;28;20077;-74
2023/12/15 02:21:51;;;;;;;43.97;18.90;;;;;;;2.29;100.00;102008.44;5065924;28;20503;-75
2023/12/15 02:24:16;;;;;;;49.08;19.73;;;;;;;2.47;100.00;102018.94;5066843;28;20153;-75
2023/12/15 02:26:41;;;;;;;52.97;21.42;;;;;;;2.33;100.00;101998.56;5049233;28;20133;-75
2023/12/15 02:29:07;;;;;;;47.20;16.63;;;;;;;2.43;100.00;102012.97;5048897;28;20037;-74
2023/12/15 02:31:32;;;;;;;54.15;21.45;;;;;;;2.39;100.00;101989.47;5065924;28;20021;-75
2023/12/15 02:33:58;;;;;;;48.83;21.13;;;;;;;2.56;100.00;102013.19;5065467;28;20059;-75
2023/12/15 02:36:23;;;;;;;49.15;19.98;;;;;;;2.62;100.00;102017.28;5062121;28;20032;-74
2023/12/15 02:38:50;;;;;;;49.28;18.90;;;;;;;2.65;100.00;102019.78;5060999;28;21030;-75
2023/12/15 02:41:15;;;;;;;;;;;;;;;2.60;100.00;102012.13;5065852;28;20045;-74
2023/12/15 02:43:40;;;;;;;47.25;20.02;;;;;;;2.68;100.00;102024.88;5065299;28;19908;-75
2023/12/15 02:46:06;;;;;;;49.25;20.05;;;;;;;2.60;100.00;102016.50;5065331;28;20025;-74
2023/12/15 02:48:32;;;;;;;48.88;21.02;;;;;;;2.62;100.00;102018.16;5065346;28;20028;-74
2023/12/15 02:50:58;;;;;;;55.10;19.88;;;;;;;2.74;100.00;102030.69;5065624;28;20064;-74
2023/12/15 02:53:23;;;;;;;51.88;18.17;;;;;;;2.73;100.00;102018.44;5048512;28;20462;-75
2023/12/15 02:55:49;;;;;;;51.50;19.92;;;;;;;2.78;100.00;102012.91;5066003;28;20036;-74
2023/12/15 02:58:15;;;;;;;50.53;18.77;;;;;;;2.82;100.00;102011.81;5065425;28;20051;-74
2023/12/15 03:00:41;;;;;;;49.28;19.75;;;;;;;2.70;100.00;101999.28;5058225;28;20041;-75
2023/12/15 03:03:06;;;;;;;55.08;20.23;;;;;;;2.75;100.00;102000.75;5063346;28;20036;-74
2023/12/15 03:05:32;;;;;;;49.13;21.02;;;;;;;2.74;100.00;102000.84;5063230;28;20031;-74
2023/12/15 03:07:57;;;;;;;46.00;20.03;;;;;;;2.78;100.00;102006.78;5042664;28;20032;-74
2023/12/15 03:10:22;;;;;;;50.50;18.67;;;;;;;2.75;100.00;101989.34;5056502;28;20282;-75
2023/12/15 03:12:48;;;;;;;47.78;19.77;;;;;;;2.67;100.00;101996.78;5066543;28;20741;-75
2023/12/15 03:15:13;;;;;;;48.15;19.75;;;;;;;2.61;100.00;101995.34;5048265;28;20380;-75
2023/12/15 03:17:39;;;;;;;46.35;19.50;;;;;;;2.73;100.00;101999.13;5063302;28;20498;-75
2023/12/15 03:20:06;;;;;;;;;;;;;;;2.65;100.00;102001.31;5064998;28;20390;-75
2023/12/15 03:22:32;;;;;;;44.20;19.52;;;;;;;2.66;100.00;101998.59;5048594;28;20454;-75
2023/12/15 03:24:57;;;;;;;46.13;19.42;;;;;;;2.75;100.00;102013.09;5048437;28;20059;-75
2023/12/15 03:27:23;;;;;;;55.30;22.67;;;;;;;2.63;100.00;102000.56;5048916;28;20032;-75
2023/12/15 03:29:49;;;;;;;54.27;19.53;;;;;;;2.60;100.00;102008.59;5048266;28;20044;-75
2023/12/15 03:32:14;;;;;;;48.70;19.05;;;;;;;2.52;100.00;102003.72;5066243;28;20275;-75
2023/12/15 03:34:58;;;;;;;42.17;18.63;;;;;;;2.64;100.00;102031.25;5066184;28;20049;-74
2023/12/15 03:37:23;;;;;;;62.13;22.20;;;;;;;2.62;100.00;102019.94;5062011;28;20025;-74
2023/12/15 03:39:49;;;;;;;50.38;20.38;;;;;;;2.75;100.00;102013.09;5064658;28;20542;-75
2023/12/15 03:42:14;;;;;;;50.05;19.30;;;;;;;2.80;100.00;102008.41;5064488;28;20036;-74
2023/12/15 03:44:39;;;;;;;48.47;20.90;;;;;;;2.61;100.00;101984.78;5047832;28;20471;-75
2023/12/15 03:47:07;;;;;;;54.85;20.45;;;;;;;2.81;100.00;102010.13;5040378;22;20121;-78
2023/12/15 03:49:34;;;;;;;54.25;24.02;;;;;;;2.74;100.00;101996.41;5025629;28;20045;-78
2023/12/15 03:51:59;;;;;;;51.42;21.42;;;;;;;2.69;100.00;102000.22;5026892;28;20045;-77
2023/12/15 03:54:24;;;;;;;55.42;21.23;;;;;;;2.62;100.00;102006.75;5026850;28;20033;-78
2023/12/15 03:56:57;;;;;;;56.58;23.13;;;;;;;2.79;100.00;102014.63;5021322;28;20033;-77
2023/12/15 03:59:23;;;;;;;52.90;21.15;;;;;;;2.85;100.00;102021.34;5009265;28;20439;-78
2023/12/15 04:01:49;;;;;;;;;;;;;;;2.77;100.00;102013.84;5022464;28;20018;-77
2023/12/15 04:04:14;;;;;;;67.70;22.05;;;;;;;2.81;100.00;102020.69;5008156;28;19913;-78
2023/12/15 04:06:40;;;;;;;59.05;22.08;;;;;;;2.85;100.00;102016.09;4992629;28;20473;-78
2023/12/15 04:09:05;;;;;;;52.25;22.73;;;;;;;2.81;100.00;102010.13;5023136;28;20034;-78
2023/12/15 04:11:31;;;;;;;56.78;22.80;;;;;;;2.89;100.00;102020.28;5006591;28;20966;-78
2023/12/15 04:13:56;;;;;;;56.90;21.75;;;;;;;2.89;100.00;102015.84;5008327;28;20030;-78
2023/12/15 04:16:21;;;;;;;52.47;22.50;;;;;;;2.92;100.00;102023.56;5016409;28;20119;-76
2023/12/15 04:18:47;;;;;;;52.47;21.30;;;;;;;2.95;100.00;102019.94;5011596;28;20038;-77
2023/12/15 04:21:12;;;;;;;53.17;22.75;;;;;;;2.93;100.00;102011.25;5015241;28;20083;-77
2023/12/15 04:23:38;;;;;;;59.20;21.52;;;;;;;2.85;100.00;102009.00;5008490;28;20030;-77
2023/12/15 04:26:03;;;;;;;60.33;22.83;;;;;;;2.99;100.00;102016.19;5016684;28;20569;-78
2023/12/15 04:28:28;;;;;;;59.33;22.52;;;;;;;2.96;100.00;102022.50;5014187;28;20033;-78
2023/12/15 04:30:54;;;;;;;50.95;21.60;;;;;;;3.09;100.00;102035.00;4997144;28;20144;-77
2023/12/15 04:33:19;;;;;;;61.10;23.88;;;;;;;3.13;100.00;102039.19;5018046;28;21785;-78
2023/12/15 04:35:45;;;;;;;56.77;21.57;;;;;;;3.21;100.00;102041.41;5020078;28;20198;-78
2023/12/15 04:38:10;;;;;;;63.97;23.37;;;;;;;3.24;100.00;102046.56;5009854;28;20292;-78
2023/12/15 04:40:35;;;;;;;58.70;22.87;;;;;;;3.15;100.00;102043.47;4997485;28;20383;-78
2023/12/15 04:43:01;;;;;;;57.37;23.60;;;;;;;3.06;100.00;102043.09;5014390;28;20774;-76
2023/12/15 04:45:26;;;;;;;52.95;21.60;;;;;;;3.18;100.00;102071.47;5007252;28;20039;-78
2023/12/15 04:47:53;;;;;;;57.65;22.40;;;;;;;3.33;100.00;102089.13;4991971;28;20045;-76
2023/12/15 04:50:18;;;;;;;53.95;22.42;;;;;;;3.35;100.00;102087.28;5006579;28;20030;-78
2023/12/15 04:52:44;;;;;;;68.25;26.27;;;;;;;3.38;100.00;102076.53;4992711;28;20484;-77
2023/12/15 04:55:09;;;;;;;62.22;23.33;;;;;;;3.45;100.00;102081.50;5024248;28;20045;-78
2023/12/15 04:57:35;;;;;;;58.15;25.65;;;;;;;3.51;100.00;102082.00;5011968;28;20033;-77
2023/12/15 05:00:00;;;;;;;58.20;23.05;;;;;;;3.43;100.00;102083.34;5028890;28;20408;-78
2023/12/15 05:02:26;;;;;;;56.80;24.13;;;;;;;3.56;100.00;102110.81;5025234;28;20037;-78
2023/12/15 05:04:51;;;;;;;63.55;24.95;;;;;;;3.54;100.00;102107.41;5024521;28;20052;-78
2023/12/15 05:07:17;;;;;;;63.10;24.70;;;;;;;3.56;100.00;102109.00;5043390;28;20041;-77
2023/12/15 05:09:42;;;;;;;57.13;24.10;;;;;;;3.67;100.00;102123.41;5022916;28;20539;-77
2023/12/15 05:12:08;;;;;;;69.20;24.20;;;;;;;3.58;100.00;102124.75;5022279;28;20049;-77
2023/12/15 05:14:35;;;;;;;57.90;25.80;;;;;;;3.69;100.00;102127.66;5013679;28;20033;-78
2023/12/15 05:17:02;;;;;;;62.58;23.80;;;;;;;3.63;100.00;102116.59;5022637;28;20091;-76
2023/12/15 05:19:27;;;;;;;62.50;25.27;;;;;;;3.65;100.00;102126.13;5017663;28;20032;-77
2023/12/15 05:21:53;;;;;;;62.55;24.83;;;;;;;3.69;100.00;102129.47;4997816;28;20037;-77
2023/12/15 05:24:18;;;;;;;60.85;24.80;;;;;;;3.71;100.00;102130.25;5020349;28;20080;-78
2023/12/15 05:26:43;;;;;;;70.97;23.63;;;;;;;3.71;100.00;102140.81;5022783;28;20061;-76
2023/12/15 05:29:10;;;;;;;62.83;27.33;;;;;;;3.65;100.00;102134.06;5008353;28;20481;-75
2023/12/15 05:31:36;;;;;;;63.13;24.83;;;;;;;3.68;100.00;102130.41;5016074;28;20829;-78
2023/12/15 05:34:01;;;;;;;67.13;25.15;;;;;;;3.62;100.00;102134.22;5019143;28;20116;-76
2023/12/15 05:36:27;;;;;;;73.10;26.48;;;;;;;3.67;100.00;102129.53;5012641;28;20604;-77
2023/12/15 05:38:53;;;;;;;66.80;25.40;;;;;;;3.62;100.00;102136.03;4993380;28;20415;-78
2023/12/15 05:41:18;;;;;;;67.50;24.85;;;;;;;3.62;100.00;102136.88;5031118;28;20277;-78
2023/12/15 05:43:44;;;;;;;72.25;25.58;;;;;;;3.69;100.00;102143.53;4999367;28;20837;-78
2023/12/15 05:46:09;;;;;;;67.10;25.00;;;;;;;3.67;100.00;102134.81;5018178;28;20033;-78
2023/12/15 05:48:35;;;;;;;74.75;26.55;;;;;;;3.68;100.00;102135.69;5025356;28;20485;-78
2023/12/15 05:51:02;;;;;;;73.72;26.35;;;;;;;3.70;100.00;102128.50;5041984;28;20045;-77
2023/12/15 05:53:27;;;;;;;68.13;24.35;;;;;;;3.56;100.00;102129.28;5028740;28;20032;-75
2023/12/15 05:55:53;;;;;;;88.93;30.38;;;;;;;3.63;100.00;102140.34;5018546;28;20432;-78
2023/12/15 05:58:19;;;;;;;71.20;26.52;;;;;;;3.65;100.00;102147.25;4995685;28;20034;-78
2023/12/15 06:00:44;;;;;;;69.88;25.45;;;;;;;3.80;100.00;102159.66;5011819;28;20026;-77
2023/12/15 06:03:09;;;;;;;76.53;27.67;;;;;;;3.77;100.00;102156.34;5012978;28;20505;-78
2023/12/15 06:05:35;;;;;;;71.70;28.60;;;;;;;3.88;100.00;102158.38;5006893;28;20034;-75
2023/12/15 06:08:01;;;;;;;82.07;27.30;;;;;;;3.82;100.00;102159.56;5015294;28;20032;-75
2023/12/15 06:10:27;;;;;;;79.90;28.45;;;;;;;3.89;100.00;102166.22;5006452;28;20029;-75
2023/12/15 06:12:52;;;;;;;70.63;26.95;;;;;;;3.86;100.00;102171.66;5007806;28;20404;-75
2023/12/15 06:15:17;;;;;;;85.80;26.50;;;;;;;3.92;100.00;102170.47;5014044;28;20034;-76
2023/12/15 06:17:43;;;;;;;78.93;30.47;;;;;;;3.87;100.00;102173.38;5007962;28;20424;-76
2023/12/15 06:20:10;;;;;;;85.72;28.67;;;;;;;3.80;100.00;102158.78;5017683;28;20034;-76
2023/12/15 06:22:36;;;;;;;74.65;27.95;;;;;;;3.97;100.00;102171.06;5031693;28;20041;-77
2023/12/15 06:25:01;;;;;;;82.53;26.45;;;;;;;3.97;100.00;102164.00;5000265;28;20036;-76
2023/12/15 06:27:26;;;;;;;79.65;26.33;;;;;;;3.85;100.00;102161.19;5018346;28;20034;-77
2023/12/15 06:29:52;;;;;;;80.45;28.08;;;;;;;3.92;100.00;102176.59;5015138;28;20053;-77
2023/12/15 06:32:17;;;;;;;85.43;29.20;;;;;;;3.87;100.00;102172.53;5019927;28;20061;-78
2023/12/15 06:34:43;;;;;;;82.63;28.75;;;;;;;4.07;100.00;102184.63;5016865;28;20034;-77
2023/12/15 06:37:08;;;;;;;84.28;29.15;;;;;;;3.96;100.00;102172.88;5028122;28;20045;-78
2023/12/15 06:39:33;;;;;;;92.38;28.75;;;;;;;4.10;100.00;102180.03;5025188;28;20037;-78
2023/12/15 06:41:59;;;;;;;86.80;29.87;;;;;;;4.07;100.00;102174.06;5007725;28;20038;-77
2023/12/15 06:44:25;;;;;;;83.82;30.63;;;;;;;4.14;100.00;102170.97;5017237;28;20283;-77
2023/12/15 06:46:51;;;;;;;80.93;27.88;;;;;;;3.99;100.00;102172.69;5011179;28;20222;-77
2023/12/15 06:49:18;;;;;;;110.28;31.30;;;;;;;3.90;100.00;102177.63;5017084;28;20105;-77
2023/12/15 06:51:44;;;;;;;120.57;32.28;;;;;;;4.04;100.00;102188.28;5021268;28;20045;-78
2023/12/15 06:54:09;;;;;;;103.90;31.87;;;;;;;4.07;100.00;102193.41;5013163;28;20031;-76
2023/12/15 06:56:38;;;;;;;93.00;30.20;;;;;;;3.94;100.00;102180.03;5009076;28;20388;-78
2023/12/15 06:59:03;;;;;;;102.57;27.45;;;;;;;4.15;100.00;102193.00;5023738;28;20296;-76
2023/12/15 07:01:29;;;;;;;105.40;32.10;;;;;;;4.21;100.00;102195.28;5016975;28;20120;-77
2023/12/15 07:03:54;;;;;;;90.22;30.42;;;;;;;4.14;100.00;102191.28;5006096;28;20033;-77
2023/12/15 07:06:19;;;;;;;94.07;28.75;;;;;;;4.13;100.00;102186.94;5007505;28;20033;-77
2023/12/15 07:08:48;;;;;;;99.85;32.58;;;;;;;4.12;100.00;102199.31;5028854;28;20459;-77
2023/12/15 07:11:14;;;;;;;104.15;30.38;;;;;;;4.18;100.00;102209.53;5009932;28;20037;-77
2023/12/15 07:13:39;;;;;;;102.35;31.33;;;;;;;4.26;100.00;102214.41;5008001;28;20034;-78
2023/12/15 07:16:05;;;;;;;102.13;29.83;;;;;;;4.30;100.00;102209.78;5014444;28;20039;-77
2023/12/15 07:18:32;;;;;;;96.10;29.42;;;;;;;4.29;100.00;102210.72;5020687;28;20823;-77
2023/12/15 07:20:58;;;;;;;117.10;34.75;;;;;;;4.30;100.00;102207.13;5013268;28;20632;-77
2023/12/15 07:23:23;;;;;;;98.70;30.17;;;;;;;4.33;100.00;102222.81;5016372;28;20128;-77
2023/12/15 07:25:48;;;;;;;124.07;34.97;;;;;;;4.36;100.00;102225.31;5010798;28;20285;-78
2023/12/15 07:28:14;;;;;;;110.95;31.08;;;;;;;4.33;100.00;102225.47;5015091;28;20277;-77
2023/12/15 07:30:39;;;;;;;85.70;31.63;;;;;;;4.38;100.00;102234.88;5006847;28;20034;-77
2023/12/15 07:33:05;;;;;;;122.77;34.07;;;;;;;4.29;100.00;102231.88;5010618;28;20025;-77
2023/12/15 07:35:30;;;;;;;118.88;33.10;;;;;;;4.32;100.00;102247.56;5027059;28;20975;-77
2023/12/15 07:37:56;;;;;;;118.25;35.15;;;;;;;4.34;100.00;102245.69;5010722;28;20033;-76
2023/12/15 07:40:22;;;;;;;117.10;30.67;;;;;;;4.29;100.00;102242.47;5019533;28;20136;-78
2023/12/15 07:42:48;;;;;;;113.85;37.63;;;;;;;4.41;100.00;102253.19;5009411;28;20120;-78
2023/12/15 07:45:13;;;;;;;122.17;34.00;;;;;;;4.41;100.00;102250.56;5014631;28;20069;-78
2023/12/15 07:47:38;;;;;;;144.30;34.67;;;;;;;4.35;100.00;102248.22;5019626;28;20044;-78
2023/12/15 07:50:04;;;;;;;113.93;33.37;;;;;;;4.42;100.00;102261.97;5016681;28;20024;-77
2023/12/15 07:52:30;;;;;;;122.70;35.35;;;;;;;4.41;100.00;102270.84;5018880;28;20081;-78
2023/12/15 07:54:55;;;;;;;139.63;36.90;;;;;;;4.46;100.00;102276.75;5008260;28;20626;-77
2023/12/15 07:57:20;;;;;;;154.43;36.17;;;;;;;4.43;100.00;102277.78;5007534;28;20049;-78
2023/12/15 07:59:46;;;;;;;135.63;35.83;;;;;;;4.47;100.00;102281.06;4990754;28;20304;-76
2023/12/15 08:02:11;;;;;;;113.00;36.65;;;;;;;4.49;100.00;102275.72;5006498;28;20048;-77
2023/12/15 08:04:37;;;;;;;159.23;36.17;;;;;;;4.54;100.00;102279.84;5019251;28;20111;-78
2023/12/15 08:07:03;;;;;;;;;;;;;;;4.61;100.00;102294.41;5002203;28;20077;-78
2023/12/15 08:09:28;;;;;;;124.45;33.95;;;;;;;4.48;100.00;102288.09;5022195;28;19949;-78
2023/12/15 08:11:54;;;;;;;131.27;31.10;;;;;;;4.47;100.00;102270.50;4993993;28;20038;-76
2023/12/15 08:14:19;;;;;;;157.68;36.40;;;;;;;4.58;100.00;102270.75;5007547;28;20045;-77
2023/12/15 08:16:45;;;;;;;162.52;37.28;;;;;;;4.55;100.00;102268.28;5014155;28;20026;-77
2023/12/15 08:19:10;;;;;;;131.77;36.00;;;;;;;4.53;100.00;102277.25;5015141;28;20125;-78
2023/12/15 08:21:35;;;;;;;113.45;35.88;;;;;;;4.47;100.00;102283.72;5008102;28;20712;-78
2023/12/15 08:24:01;;;;;;;145.68;38.13;;;;;;;4.56;100.00;102293.78;5014944;28;20129;-77
2023/12/15 08:26:27;;;;;;;120.20;32.53;;;;;;;4.41;100.00;102284.09;5008765;28;20397;-77
2023/12/15 08:28:53;;;;;;;116.97;35.08;;;;;;;4.49;100.00;102302.16;5012323;28;20076;-77
2023/12/15 08:31:23;;;;;;;110.18;32.03;;;;;;;4.70;100.00;102316.00;5033198;28;20045;-78
2023/12/15 08:33:49;;;;;;;111.05;33.20;;;;;;;4.83;100.00;102322.31;5019347;28;20065;-78
2023/12/15 08:36:15;;;;;;;;;;;;;;;4.79;100.00;102310.19;5019822;28;20060;-78
2023/12/15 08:38:41;;;;;;;110.47;31.15;;;;;;;4.80;100.00;102328.63;5015320;28;19968;-78
2023/12/15 08:41:06;;;;;;;139.23;33.55;;;;;;;4.75;100.00;102319.22;5004050;28;20048;-76
2023/12/15 08:43:32;;;;;;;119.13;32.53;;;;;;;4.71;100.00;102323.00;4994504;28;20038;-77
2023/12/15 08:45:58;;;;;;;142.70;34.47;;;;;;;4.83;100.00;102332.88;5017641;28;20052;-76
2023/12/15 08:48:23;;;;;;;133.90;32.67;;;;;;;4.85;100.00;102328.38;5000623;28;20129;-77
2023/12/15 08:50:49;;;;;;;112.90;34.03;;;;;;;4.93;100.00;102327.94;5021959;28;20048;-78
2023/12/15 08:53:16;;;;;;;139.55;35.42;;;;;;;4.94;100.00;102329.63;5014193;28;20056;-78
2023/12/15 08:55:42;;;;;;;129.27;33.13;;;;;;;5.01;100.00;102341.56;5011134;28;20400;-77
2023/12/15 08:58:07;;;;;;;147.88;34.25;;;;;;;4.98;100.00;102337.31;5022242;28;20030;-77
2023/12/15 09:00:32;;;;;;;104.78;30.55;;;;;;;5.08;100.00;102343.78;5010954;28;20100;-78
2023/12/15 09:02:58;;;;;;;109.17;30.87;;;;;;;5.11;100.00;102345.41;4993916;28;20045;-78
2023/12/15 09:05:23;;;;;;;111.60;28.30;;;;;;;5.00;100.00;102332.78;5018261;28;20033;-77
2023/12/15 09:07:51;;;;;;;112.95;32.80;;;;;;;5.13;100.00;102340.88;4998543;28;20402;-77
2023/12/15 09:10:16;;;;;;;113.30;32.42;;;;;;;5.13;100.00;102345.31;5038154;28;20048;-78
2023/12/15 09:12:42;;;;;;;95.68;28.65;;;;;;;5.10;100.00;102350.78;5014833;28;20042;-77
2023/12/15 09:15:07;;;;;;;99.97;26.38;;;;;;;5.17;100.00;102365.38;5021112;28;20041;-77
2023/12/15 09:17:33;;;;;;;96.32;28.27;;;;;;;5.17;100.00;102358.28;5042773;28;20033;-78
2023/12/15 09:19:58;;;;;;;86.60;29.33;;;;;;;5.20;100.00;102378.47;5009903;28;20037;-78
2023/12/15 09:22:24;;;;;;;90.17;27.23;;;;;;;5.32;100.00;102380.41;5010292;28;20061;-77
2023/12/15 09:24:51;;;;;;;100.13;28.20;;;;;;;5.32;100.00;102382.19;5018144;28;20034;-78
2023/12/15 09:27:17;;;;;;;86.22;27.20;;;;;;;5.39;100.00;102386.19;4994830;28;20429;-78
2023/12/15 09:29:42;;;;;;;82.10;25.83;;;;;;;5.38;100.00;102387.13;5002083;28;20535;-77
2023/12/15 09:32:07;;;;;;;91.20;27.55;;;;;;;5.37;100.00;102385.44;5029695;28;20680;-78
2023/12/15 09:34:33;;;;;;;90.60;29.30;;;;;;;5.33;100.00;102376.78;5013470;28;20145;-78
2023/12/15 09:36:58;;;;;;;89.22;27.55;;;;;;;5.33;100.00;102376.78;5025096;28;20284;-78
2023/12/15 09:39:24;;;;;;;83.97;25.17;;;;;;;5.50;100.00;102387.28;5024744;28;20532;-78
2023/12/15 09:41:49;;;;;;;79.17;27.27;;;;;;;5.50;100.00;102397.88;5009960;28;20256;-78
2023/12/15 09:44:15;;;;;;;80.93;25.42;;;;;;;5.53;100.00;102406.59;5026285;28;20288;-77
2023/12/15 09:46:42;;;;;;;;;;;;;;;5.53;100.00;102411.91;5039643;23;20295;-77
2023/12/15 09:49:10;;;;;;;79.28;23.45;;;;;;;5.53;100.00;102403.94;5054508;28;20524;-76
2023/12/15 09:51:37;;;;;;;76.63;24.25;;;;;;;5.63;100.00;102405.09;5054975;28;20033;-76
2023/12/15 09:54:02;;;;;;;87.80;27.73;;;;;;;5.57;100.00;102402.81;5047813;28;20063;-77
2023/12/15 09:56:28;;;;;;;91.80;28.08;;;;;;;5.69;100.00;102410.91;5081095;28;20438;-77
2023/12/15 09:58:54;;;;;;;93.35;28.52;;;;;;;5.74;100.00;102409.78;5059160;28;20403;-77
2023/12/15 10:01:19;;;;;;;91.25;28.77;;;;;;;5.73;100.00;102403.59;5047750;28;20032;-77
2023/12/15 10:03:46;;;;;;;95.23;26.77;;;;;;;5.75;100.00;102395.56;5047654;28;20017;-77
2023/12/15 10:06:11;;;;;;;85.97;27.13;;;;;;;5.68;100.00;102403.88;5046391;28;20086;-75
2023/12/15 10:08:42;;;;;;;93.83;27.90;;;;;;;5.91;100.00;102417.59;5050000;28;20041;-76
2023/12/15 10:11:07;;;;;;;97.70;26.90;;;;;;;5.85;100.00;102402.91;5050364;28;20298;-76
2023/12/15 10:13:33;;;;;;;86.68;26.13;;;;;;;5.95;100.00;102413.84;5046196;28;20021;-75
2023/12/15 10:15:58;;;;;;;80.22;28.08;;;;;;;5.99;100.00;102419.81;5046339;28;20399;-76
2023/12/15 10:18:23;;;;;;;86.43;24.02;;;;;;;6.10;100.00;102417.38;5047215;28;20343;-77
2023/12/15 10:20:49;;;;;;;72.90;22.63;;;;;;;6.00;100.00;102402.97;5047664;28;20476;-76
2023/12/15 10:23:14;;;;;;;72.67;23.60;;;;;;;6.02;100.00;102409.03;5074265;28;20699;-77
2023/12/15 10:25:47;;;;;;;80.80;22.95;;;;;;;6.08;100.00;102424.56;5046320;28;20033;-77
2023/12/15 10:28:14;;;;;;;86.30;26.67;;;;;;;6.18;100.00;102430.16;5046143;28;20754;-75
2023/12/15 10:30:40;;;;;;;92.50;25.13;;;;;;;6.13;100.00;102423.34;5049708;28;20463;-77
2023/12/15 10:33:06;;;;;;;83.80;25.80;;;;;;;6.13;100.00;102422.47;5049021;28;20036;-76
2023/12/15 10:35:31;;;;;;;83.20;26.88;;;;;;;6.10;100.00;102410.25;5045763;28;20122;-76
2023/12/15 10:37:58;;;;;;;91.97;25.40;;;;;;;6.17;100.00;102409.91;5050160;28;20037;-76
2023/12/15 10:40:25;;;;;;;88.43;27.88;;;;;;;6.14;100.00;102410.94;5044488;28;20060;-76
2023/12/15 10:42:51;;;;;;;83.00;25.20;;;;;;;6.22;100.00;102405.16;5074978;28;20048;-77
2023/12/15 10:45:18;;;;;;;83.30;25.45;;;;;;;6.17;100.00;102410.75;5045468;28;20040;-75
2023/12/15 10:47:43;;;;;;;91.13;26.00;;;;;;;6.26;100.00;102428.75;5069996;28;20067;-75
2023/12/15 10:50:09;;;;;;;91.05;25.90;;;;;;;6.18;100.00;102408.94;5042177;28;20049;-76
2023/12/15 10:52:39;;;;;;;90.38;24.75;;;;;;;6.21;100.00;102419.38;5044902;28;20151;-76
2023/12/15 10:55:06;;;;;;;82.78;25.98;;;;;;;6.22;100.00;102426.38;5078064;28;20062;-77
2023/12/15 10:57:32;;;;;;;82.38;26.00;;;;;;;6.37;100.00;102436.06;5062173;28;20037;-77
2023/12/15 10:59:57;;;;;;;86.88;25.58;;;;;;;6.30;100.00;102426.78;5046405;28;20534;-76
2023/12/15 11:02:24;;;;;;;105.13;25.42;;;;;;;6.25;100.00;102427.06;5059759;28;20025;-76